Time;durP1;ratioP1;P1;durP2;ratioP2;P2;SDS_P1;SDS_P2;PMS_P1;PMS_P2;Temp;Humidity;BMP_temperature;BMP_pressure;BME280_temperature;BME280_humidity;BME280_pressure;Samples;Min_cycle;Max_cycle;Signal;HPM_P1;HPM_P2
2022/11/13 00:00:51;;;;;;;38.33;26.38;;;7.00;99.90;;;;;;5033479;28;20040;-78
2022/11/13 00:03:36;;;;;;;32.90;21.48;;;6.90;99.90;;;;;;5037549;28;20121;-78
2022/11/13 00:06:20;;;;;;;30.85;19.48;;;6.90;99.90;;;;;;5023398;28;20584;-79
2022/11/13 00:09:05;;;;;;;31.02;20.25;;;6.80;99.90;;;;;;5036107;28;20104;-79
2022/11/13 00:11:49;;;;;;;32.28;17.08;;;6.90;99.90;;;;;;5024157;28;20452;-77
2022/11/13 00:14:34;;;;;;;27.13;19.40;;;7.00;99.90;;;;;;5035538;28;20044;-78
2022/11/13 00:17:18;;;;;;;33.45;18.40;;;7.10;99.90;;;;;;5026445;28;20770;-76
2022/11/13 00:20:03;;;;;;;30.30;20.08;;;7.20;99.90;;;;;;5032566;28;20060;-77
2022/11/13 00:22:48;;;;;;;30.95;20.05;;;7.10;99.90;;;;;;5032700;28;20132;-78
2022/11/13 00:25:34;;;;;;;31.35;20.63;;;7.10;99.90;;;;;;5032038;28;20044;-77
2022/11/13 00:28:18;;;;;;;29.48;18.60;;;7.00;99.90;;;;;;5029416;28;20095;-78
2022/11/13 00:31:05;;;;;;;29.25;17.60;;;7.00;99.90;;;;;;5028525;28;20065;-78
2022/11/13 00:33:50;;;;;;;43.63;30.35;;;7.10;99.90;;;;;;5043652;28;20092;-78
2022/11/13 00:36:34;;;;;;;30.33;22.63;;;7.00;99.90;;;;;;5043714;28;20076;-76
2022/11/13 00:39:19;;;;;;;26.83;19.27;;;7.00;99.90;;;;;;5035062;28;20044;-75
2022/11/13 00:42:03;;;;;;;29.02;19.08;;;7.00;99.90;;;;;;5029476;28;20431;-73
2022/11/13 00:44:48;;;;;;;29.90;18.35;;;6.90;99.90;;;;;;5023192;28;20084;-74
2022/11/13 00:47:33;;;;;;;29.05;19.08;;;6.90;99.90;;;;;;5013485;28;20087;-75
2022/11/13 00:50:17;;;;;;;23.92;15.65;;;7.00;99.90;;;;;;5018449;28;20100;-74
2022/11/13 00:53:02;;;;;;;29.83;18.73;;;7.00;99.90;;;;;;5024050;28;20404;-75
2022/11/13 00:55:47;;;;;;;34.22;20.73;;;7.00;99.90;;;;;;5031392;28;20395;-77
2022/11/13 00:58:31;;;;;;;44.20;27.20;;;7.00;99.90;;;;;;5030550;28;20258;-82
2022/11/13 01:01:18;;;;;;;30.17;18.08;;;6.90;99.90;;;;;;5031088;28;20072;-75
2022/11/13 01:04:02;;;;;;;32.97;20.15;;;6.80;99.90;;;;;;5029951;28;20404;-74
2022/11/13 01:06:47;;;;;;;34.58;22.73;;;6.70;99.90;;;;;;5025483;28;20133;-77
2022/11/13 01:09:32;;;;;;;31.23;19.23;;;6.70;99.90;;;;;;5021639;28;20048;-77
2022/11/13 01:12:16;;;;;;;58.22;33.58;;;6.70;99.90;;;;;;5031817;28;20036;-78
2022/11/13 01:15:01;;;;;;;73.05;38.28;;;6.70;99.90;;;;;;5023739;28;20555;-75
2022/11/13 01:17:46;;;;;;;61.33;34.47;;;6.80;99.90;;;;;;5026146;28;20048;-75
2022/11/13 01:20:31;;;;;;;50.10;28.33;;;6.80;99.90;;;;;;5015751;28;20610;-75
2022/11/13 01:23:16;;;;;;;36.03;23.95;;;6.80;99.90;;;;;;5021842;28;20034;-75
2022/11/13 01:26:12;;;;;;;43.05;25.65;;;6.80;99.90;;;;;;5023254;28;20552;-74
2022/11/13 01:28:58;;;;;;;40.22;24.38;;;6.80;99.90;;;;;;5016379;28;20534;-76
2022/11/13 01:31:43;;;;;;;36.67;21.10;;;6.80;99.90;;;;;;5012606;28;20595;-77
2022/11/13 01:34:27;;;;;;;40.03;22.63;;;6.80;99.90;;;;;;5024830;28;20294;-76
2022/11/13 01:37:11;;;;;;;38.20;21.75;;;6.80;99.90;;;;;;5031583;28;20119;-77
2022/11/13 01:39:56;;;;;;;32.28;19.40;;;6.80;99.90;;;;;;5030339;28;20459;-77
2022/11/13 01:42:49;;;;;;;35.00;21.23;;;6.80;99.90;;;;;;5030559;28;20079;-74
2022/11/13 01:45:58;;;;;;;34.45;21.15;;;6.80;99.90;;;;;;5017300;28;20510;-76
2022/11/13 01:48:56;;;;;;;38.60;24.70;;;6.70;99.90;;;;;;5029474;28;20107;-75
2022/11/13 01:51:53;;;;;;;36.70;22.10;;;6.70;99.90;;;;;;5034858;28;20106;-74
2022/11/13 01:54:49;;;;;;;39.22;25.00;;;6.60;99.90;;;;;;5023854;28;20057;-78
2022/11/13 01:57:34;;;;;;;36.88;24.10;;;6.50;99.90;;;;;;5030667;28;20473;-76
2022/11/13 02:00:19;;;;;;;35.22;20.50;;;6.50;99.90;;;;;;5011671;28;20116;-73
2022/11/13 02:03:04;;;;;;;35.55;23.58;;;6.40;99.90;;;;;;5023767;28;20180;-77
2022/11/13 02:05:49;;;;;;;41.20;28.35;;;6.30;99.90;;;;;;5034745;28;20125;-73
2022/11/13 02:08:34;;;;;;;44.20;29.80;;;6.30;99.90;;;;;;5024276;28;20072;-73
2022/11/13 02:11:19;;;;;;;38.35;24.33;;;6.30;99.90;;;;;;5031422;28;20056;-74
2022/11/13 02:14:04;;;;;;;44.25;25.90;;;6.30;99.90;;;;;;5027083;28;20096;-76
2022/11/13 02:16:52;;;;;;;41.50;25.80;;;6.40;99.90;;;;;;5020306;28;20040;-75
2022/11/13 02:19:41;;;;;;;42.17;26.67;;;6.30;99.90;;;;;;5023529;28;20036;-73
2022/11/13 02:22:44;;;;;;;51.78;31.23;;;6.30;99.90;;;;;;5023299;28;20503;-76
2022/11/13 02:25:30;;;;;;;42.42;28.98;;;6.20;99.90;;;;;;5018631;28;20037;-74
2022/11/13 02:28:15;;;;;;;41.90;26.13;;;6.10;99.90;;;;;;5027892;28;20398;-77
2022/11/13 02:31:10;;;;;;;39.30;24.25;;;6.10;99.90;;;;;;5019461;28;20103;-74
2022/11/13 02:33:55;;;;;;;42.05;26.35;;;6.10;99.90;;;;;;5029509;28;20040;-75
2022/11/13 02:36:39;;;;;;;36.95;24.00;;;6.10;99.90;;;;;;5024311;28;20040;-73
2022/11/13 02:39:24;;;;;;;41.15;25.85;;;6.20;99.90;;;;;;5031591;28;20411;-73
2022/11/13 02:42:09;;;;;;;37.08;24.60;;;6.10;99.90;;;;;;5033047;28;20056;-73
2022/11/13 02:44:56;;;;;;;33.95;22.33;;;6.10;99.90;;;;;;5029423;28;20554;-74
2022/11/13 02:47:40;;;;;;;34.63;23.13;;;6.10;99.90;;;;;;5024359;28;20111;-78
2022/11/13 02:50:25;;;;;;;32.88;21.85;;;6.10;99.90;;;;;;5032404;28;20060;-76
2022/11/13 02:53:10;;;;;;;30.02;20.05;;;6.10;99.90;;;;;;5022521;28;20044;-76
2022/11/13 02:55:54;;;;;;;36.75;20.65;;;6.10;99.90;;;;;;5032319;28;20075;-72
2022/11/13 02:58:39;;;;;;;32.47;20.48;;;6.20;99.90;;;;;;5024677;28;20080;-76
2022/11/13 03:01:23;;;;;;;30.52;20.25;;;6.20;99.90;;;;;;5025750;28;20083;-73
2022/11/13 03:04:07;;;;;;;33.10;21.02;;;6.20;99.90;;;;;;5032250;28;20095;-73
2022/11/13 03:06:51;;;;;;;35.28;20.58;;;6.30;99.90;;;;;;5030421;28;20167;-74
2022/11/13 03:09:36;;;;;;;29.75;19.88;;;6.30;99.90;;;;;;5027100;28;20060;-73
2022/11/13 03:12:23;;;;;;;34.00;21.60;;;6.30;99.90;;;;;;5031598;28;20045;-74
2022/11/13 03:15:09;;;;;;;33.20;20.98;;;6.30;99.90;;;;;;5027869;28;20075;-77
2022/11/13 03:17:53;;;;;;;33.50;21.30;;;6.30;99.90;;;;;;5028263;28;20060;-73
2022/11/13 03:20:42;;;;;;;34.85;21.50;;;6.30;99.90;;;;;;5032106;28;20403;-75
2022/11/13 03:23:27;;;;;;;31.65;21.17;;;6.20;99.90;;;;;;5031791;28;20506;-77
2022/11/13 03:26:16;;;;;;;36.15;23.85;;;6.30;99.90;;;;;;5029884;28;20121;-74
2022/11/13 03:29:00;;;;;;;37.67;21.92;;;6.30;99.90;;;;;;5026162;28;20458;-72
2022/11/13 03:31:45;;;;;;;30.48;20.98;;;6.30;99.90;;;;;;5030184;28;20060;-74
2022/11/13 03:34:29;;;;;;;32.33;19.73;;;6.20;99.90;;;;;;5028833;28;20362;-73
2022/11/13 03:37:14;;;;;;;34.47;21.20;;;6.20;99.90;;;;;;5029725;28;20044;-73
2022/11/13 03:40:00;;;;;;;34.08;21.95;;;6.10;99.90;;;;;;5028797;28;20082;-74
2022/11/13 03:42:48;;;;;;;38.38;25.23;;;6.10;99.90;;;;;;5026025;28;20040;-77
2022/11/13 03:45:33;;;;;;;37.47;25.02;;;6.00;99.90;;;;;;5028344;28;20080;-75
2022/11/13 03:48:17;;;;;;;38.50;25.83;;;6.10;99.90;;;;;;5026140;28;20053;-75
2022/11/13 03:51:02;;;;;;;45.15;28.10;;;6.10;99.90;;;;;;5032135;28;20451;-73
2022/11/13 03:53:46;;;;;;;40.13;25.10;;;6.10;99.90;;;;;;5028723;28;20040;-73
2022/11/13 03:56:31;;;;;;;41.47;25.13;;;6.00;99.90;;;;;;5026913;28;20545;-77
2022/11/13 03:59:16;;;;;;;45.55;26.27;;;6.00;99.90;;;;;;5019918;28;20590;-73
2022/11/13 04:02:00;;;;;;;39.22;25.58;;;6.00;99.90;;;;;;5023261;28;20400;-73
2022/11/13 04:04:44;;;;;;;42.22;26.52;;;5.90;99.90;;;;;;5022038;28;20126;-75
2022/11/13 04:07:29;;;;;;;39.67;24.85;;;5.90;99.90;;;;;;5024056;28;20128;-74
2022/11/13 04:10:13;;;;;;;39.70;24.13;;;5.90;99.90;;;;;;5018729;28;20144;-75
2022/11/13 04:12:58;;;;;;;45.65;29.90;;;5.90;99.90;;;;;;5027278;28;20040;-74
2022/11/13 04:15:42;;;;;;;40.08;27.77;;;5.70;99.90;;;;;;5016651;28;20084;-73
2022/11/13 04:18:26;;;;;;;40.05;27.30;;;5.80;99.90;;;;;;5030946;28;20048;-77
2022/11/13 04:21:11;;;;;;;38.50;27.75;;;5.70;99.90;;;;;;5030890;28;20040;-75
2022/11/13 04:23:55;;;;;;;40.85;26.88;;;5.70;99.90;;;;;;5028961;28;20040;-73
2022/11/13 04:26:39;;;;;;;43.20;29.88;;;5.70;99.90;;;;;;5030988;28;20060;-73
2022/11/13 04:29:24;;;;;;;47.03;32.35;;;5.70;99.90;;;;;;5030809;28;20071;-74
2022/11/13 04:32:09;;;;;;;46.30;30.13;;;5.60;99.90;;;;;;5030438;28;20088;-76
2022/11/13 04:34:53;;;;;;;63.65;39.17;;;5.60;99.90;;;;;;5030598;28;20068;-75
2022/11/13 04:37:38;;;;;;;48.30;32.30;;;5.60;99.90;;;;;;5011650;28;20093;-76
2022/11/13 04:40:23;;;;;;;52.78;32.15;;;5.40;99.90;;;;;;5022177;28;20045;-75
2022/11/13 04:43:07;;;;;;;57.67;33.30;;;5.40;99.90;;;;;;5029767;28;20040;-75
2022/11/13 04:45:52;;;;;;;56.15;32.45;;;5.40;99.90;;;;;;5030024;28;20040;-73
2022/11/13 04:48:36;;;;;;;49.00;29.45;;;5.40;99.90;;;;;;5024006;28;20518;-73
2022/11/13 04:51:21;;;;;;;45.28;28.83;;;5.50;99.90;;;;;;5029551;28;20094;-76
2022/11/13 04:54:05;;;;;;;49.25;33.45;;;5.50;99.90;;;;;;5029502;28;20092;-76
2022/11/13 04:56:49;;;;;;;57.63;38.95;;;5.50;99.90;;;;;;5027602;28;20116;-76
2022/11/13 04:59:34;;;;;;;46.42;33.60;;;5.50;99.90;;;;;;5027645;28;20107;-75
2022/11/13 05:02:19;;;;;;;45.72;31.33;;;5.50;99.90;;;;;;5029585;28;20048;-77
2022/11/13 05:05:03;;;;;;;55.78;35.88;;;5.50;99.90;;;;;;5029935;28;20506;-77
2022/11/13 05:07:48;;;;;;;46.90;30.55;;;5.50;99.90;;;;;;5029216;28;20048;-77
2022/11/13 05:10:33;;;;;;;55.35;33.75;;;5.50;99.90;;;;;;5025559;28;20100;-74
2022/11/13 05:13:17;;;;;;;44.42;27.67;;;5.50;99.90;;;;;;5030057;28;20032;-76
2022/11/13 05:16:03;;;;;;;38.92;25.73;;;5.50;99.90;;;;;;5024602;28;20056;-74
2022/11/13 05:18:48;;;;;;;36.72;26.17;;;5.50;99.90;;;;;;5027118;28;20095;-72
2022/11/13 05:21:34;;;;;;;33.65;24.08;;;5.50;99.90;;;;;;5025817;28;20399;-73
2022/11/13 05:24:19;;;;;;;36.00;24.70;;;5.50;99.90;;;;;;5027353;28;20905;-75
2022/11/13 05:27:03;;;;;;;34.72;22.90;;;5.40;99.90;;;;;;5033935;28;20068;-74
2022/11/13 05:29:47;;;;;;;35.05;23.88;;;5.30;99.90;;;;;;5026970;28;20104;-75
2022/11/13 05:32:32;;;;;;;34.80;23.00;;;5.30;99.90;;;;;;5033096;28;20383;-74
2022/11/13 05:35:17;;;;;;;31.35;20.85;;;5.30;99.90;;;;;;5031232;28;20045;-73
2022/11/13 05:38:02;;;;;;;39.50;24.30;;;5.20;99.90;;;;;;5029270;28;20068;-73
2022/11/13 05:40:46;;;;;;;74.03;40.72;;;5.20;99.90;;;;;;5035097;28;20040;-74
2022/11/13 05:43:31;;;;;;;52.03;33.15;;;5.20;99.90;;;;;;5034495;28;20040;-73
2022/11/13 05:46:21;;;;;;;91.45;47.63;;;5.20;99.90;;;;;;5032580;28;20045;-76
2022/11/13 05:49:05;;;;;;;80.00;43.85;;;5.20;99.90;;;;;;5020841;28;20052;-74
2022/11/13 05:51:50;;;;;;;59.30;35.47;;;5.20;99.90;;;;;;5034749;28;20037;-73
2022/11/13 05:54:34;;;;;;;52.65;32.38;;;5.30;99.90;;;;;;5034355;28;20110;-73
2022/11/13 05:57:19;;;;;;;46.20;28.75;;;5.30;99.90;;;;;;5034424;28;20498;-76
2022/11/13 06:00:05;;;;;;;47.95;30.88;;;5.30;99.90;;;;;;5034534;28;20063;-77
2022/11/13 06:02:49;;;;;;;51.35;30.48;;;5.30;99.90;;;;;;5035036;28;20064;-76
2022/11/13 06:05:36;;;;;;;46.70;32.55;;;5.40;99.90;;;;;;5033228;28;20076;-73
2022/11/13 06:08:21;;;;;;;55.53;33.70;;;5.50;99.90;;;;;;5030615;28;20392;-73
2022/11/13 06:11:09;;;;;;;46.22;32.90;;;5.50;99.90;;;;;;5030984;28;20055;-74
2022/11/13 06:13:54;;;;;;;63.67;41.25;;;5.50;99.90;;;;;;5030374;28;20048;-77
2022/11/13 06:16:42;;;;;;;89.07;56.40;;;5.50;99.90;;;;;;5033965;28;20044;-73
2022/11/13 06:19:26;;;;;;;92.22;53.70;;;5.60;99.90;;;;;;5028590;28;20394;-73
2022/11/13 06:22:11;;;;;;;83.32;51.03;;;5.70;99.90;;;;;;5028770;28;20056;-78
2022/11/13 06:24:55;;;;;;;66.80;42.05;;;5.90;99.90;;;;;;5034155;28;20040;-77
2022/11/13 06:27:40;;;;;;;81.18;51.20;;;5.90;99.90;;;;;;5029779;28;20164;-72
2022/11/13 06:30:24;;;;;;;63.28;45.88;;;5.70;99.90;;;;;;5031611;28;20168;-73
2022/11/13 06:33:08;;;;;;;50.80;35.17;;;5.70;99.90;;;;;;5032580;28;20438;-78
2022/11/13 06:35:53;;;;;;;46.80;31.00;;;5.80;99.90;;;;;;5033416;28;20045;-75
2022/11/13 06:38:39;;;;;;;48.50;31.92;;;6.00;99.90;;;;;;5029392;28;20125;-74
2022/11/13 06:41:28;;;;;;;46.78;29.55;;;6.30;99.90;;;;;;5028951;28;20124;-73
2022/11/13 06:44:12;;;;;;;48.50;27.25;;;6.50;99.90;;;;;;5019584;28;20100;-73
2022/11/13 06:46:57;;;;;;;38.15;24.05;;;6.70;99.90;;;;;;5026728;28;20415;-75
2022/11/13 06:49:41;;;;;;;40.08;24.30;;;6.80;99.90;;;;;;5032789;28;20053;-72
2022/11/13 06:52:25;;;;;;;35.88;22.77;;;6.90;99.90;;;;;;5033164;28;20098;-73
2022/11/13 06:55:10;;;;;;;37.65;24.17;;;7.00;99.90;;;;;;5028823;28;20071;-72
2022/11/13 06:57:55;;;;;;;37.92;22.75;;;7.10;99.90;;;;;;5033678;28;20411;-74
2022/11/13 07:00:40;;;;;;;32.15;21.42;;;7.10;99.90;;;;;;5028476;28;20068;-77
2022/11/13 07:03:26;;;;;;;34.55;21.92;;;7.10;99.90;;;;;;5032467;28;20044;-76
2022/11/13 07:06:13;;;;;;;35.67;23.30;;;7.20;99.90;;;;;;5032896;28;20052;-77
2022/11/13 07:08:58;;;;;;;32.67;22.67;;;7.10;99.90;;;;;;5027348;28;20604;-75
2022/11/13 07:11:42;;;;;;;44.63;30.10;;;7.10;99.90;;;;;;5031358;28;20048;-74
2022/11/13 07:14:27;;;;;;;41.33;28.67;;;7.30;99.90;;;;;;5026414;28;20045;-78
2022/11/13 07:17:11;;;;;;;41.95;28.45;;;7.00;99.90;;;;;;5032084;28;20514;-75
2022/11/13 07:19:56;;;;;;;33.33;22.05;;;7.00;99.90;;;;;;5026305;28;20044;-74
2022/11/13 07:22:41;;;;;;;36.67;20.50;;;6.90;99.90;;;;;;5020582;28;20045;-74
2022/11/13 07:25:26;;;;;;;35.10;22.13;;;6.80;99.90;;;;;;5032485;28;20083;-73
2022/11/13 07:28:11;;;;;;;32.92;21.25;;;7.00;99.90;;;;;;5032602;28;20861;-74
2022/11/13 07:30:59;;;;;;;39.33;24.58;;;7.00;99.90;;;;;;5022994;28;20052;-73
2022/11/13 07:33:43;;;;;;;44.28;27.95;;;7.10;99.90;;;;;;5029526;28;20083;-74
2022/11/13 07:36:28;;;;;;;39.97;25.10;;;7.20;99.90;;;;;;5029068;28;20040;-74
2022/11/13 07:39:13;;;;;;;32.13;22.92;;;7.30;99.90;;;;;;5020827;28;20063;-75
2022/11/13 07:41:57;;;;;;;30.50;21.17;;;7.40;99.90;;;;;;5032323;28;20048;-74
2022/11/13 07:44:42;;;;;;;34.22;20.73;;;7.60;99.90;;;;;;5020132;28;20048;-74
2022/11/13 07:47:27;;;;;;;38.22;21.85;;;7.80;99.90;;;;;;5022963;28;20501;-73
2022/11/13 07:50:11;;;;;;;36.03;22.80;;;8.00;99.90;;;;;;5031949;28;20558;-73
2022/11/13 07:52:58;;;;;;;33.10;22.13;;;8.20;99.90;;;;;;5032351;28;20510;-76
2022/11/13 07:55:42;;;;;;;33.38;21.02;;;8.40;99.90;;;;;;5028824;28;20040;-76
2022/11/13 07:58:27;;;;;;;38.72;22.90;;;8.50;99.90;;;;;;5030828;28;20067;-74
2022/11/13 08:01:12;;;;;;;30.92;20.20;;;8.70;99.90;;;;;;5013927;28;20499;-73
2022/11/13 08:03:57;;;;;;;27.17;18.55;;;8.80;99.90;;;;;;5030561;28;20048;-74
2022/11/13 08:06:41;;;;;;;27.38;18.20;;;9.00;99.90;;;;;;5027318;28;20072;-73
2022/11/13 08:09:26;;;;;;;26.30;15.23;;;9.20;99.90;;;;;;5025041;28;20502;-74
2022/11/13 08:12:10;;;;;;;27.58;16.58;;;9.30;99.90;;;;;;5030655;28;20107;-73
2022/11/13 08:14:55;;;;;;;27.30;16.85;;;9.30;99.90;;;;;;5028490;28;20164;-74
2022/11/13 08:17:39;;;;;;;23.73;16.48;;;9.40;99.90;;;;;;5021587;28;20041;-79
2022/11/13 08:20:25;;;;;;;28.95;16.23;;;9.50;99.90;;;;;;5030825;28;20084;-73
2022/11/13 08:23:09;;;;;;;29.80;16.15;;;9.70;99.90;;;;;;5031206;28;20111;-73
2022/11/13 08:25:54;;;;;;;24.45;15.77;;;9.40;99.90;;;;;;5031068;28;20044;-74
2022/11/13 08:28:39;;;;;;;25.85;16.52;;;9.20;99.90;;;;;;5028046;28;20044;-74
2022/11/13 08:31:23;;;;;;;23.80;14.40;;;9.50;99.90;;;;;;5029895;28;20113;-73
2022/11/13 08:34:08;;;;;;;23.40;14.43;;;9.70;99.90;;;;;;5029507;28;20395;-74
2022/11/13 08:36:53;;;;;;;23.38;12.80;;;9.90;99.90;;;;;;5030028;28;20143;-73
2022/11/13 08:39:37;;;;;;;21.15;12.90;;;10.10;99.90;;;;;;5023768;28;20088;-74
2022/11/13 08:42:22;;;;;;;23.45;11.45;;;10.30;99.90;;;;;;5020203;28;20041;-74
2022/11/13 08:45:07;;;;;;;21.00;12.55;;;10.50;99.90;;;;;;5029136;28;20095;-77
2022/11/13 08:47:52;;;;;;;24.13;13.90;;;10.70;99.90;;;;;;5022921;28;20510;-77
2022/11/13 08:50:37;;;;;;;19.98;12.40;;;10.90;99.90;;;;;;5030287;28;20048;-73
2022/11/13 08:53:22;;;;;;;21.48;12.18;;;11.00;99.90;;;;;;5030678;28;20079;-76
2022/11/13 08:56:06;;;;;;;24.98;13.07;;;11.10;99.90;;;;;;5030213;28;20099;-75
2022/11/13 08:58:51;;;;;;;17.52;11.55;;;11.30;99.90;;;;;;5032274;28;20522;-74
2022/11/13 09:01:35;;;;;;;18.95;11.32;;;11.40;99.90;;;;;;5029475;28;20060;-73
2022/11/13 09:04:21;;;;;;;18.05;10.65;;;11.50;99.90;;;;;;5033611;28;20056;-74
2022/11/13 09:07:05;;;;;;;18.13;10.63;;;11.40;99.90;;;;;;5024992;28;20108;-76
2022/11/13 09:09:50;;;;;;;15.00;8.43;;;11.60;99.90;;;;;;5024374;28;20444;-74
2022/11/13 09:12:34;;;;;;;14.95;8.57;;;11.60;99.90;;;;;;5034173;28;20052;-73
2022/11/13 09:15:18;;;;;;;14.43;7.47;;;11.70;99.90;;;;;;5032953;28;20395;-73
2022/11/13 09:18:04;;;;;;;16.75;8.70;;;11.80;99.90;;;;;;5032350;28;20152;-73
2022/11/13 09:20:48;;;;;;;15.60;9.07;;;11.90;99.90;;;;;;5028679;28;20400;-75
2022/11/13 09:23:33;;;;;;;16.67;9.40;;;11.90;99.90;;;;;;5027169;28;20064;-75
2022/11/13 09:26:17;;;;;;;18.75;9.40;;;12.10;99.90;;;;;;5018970;28;20100;-73
2022/11/13 09:29:02;;;;;;;16.75;9.43;;;12.20;99.90;;;;;;5027746;28;20060;-72
2022/11/13 09:31:47;;;;;;;14.45;7.88;;;12.30;99.90;;;;;;5031047;28;20526;-73
2022/11/13 09:34:32;;;;;;;18.55;9.38;;;12.40;99.90;;;;;;5032751;28;20056;-71
2022/11/13 09:37:17;;;;;;;15.10;9.18;;;12.50;99.90;;;;;;5024297;28;20060;-71
2022/11/13 09:40:02;;;;;;;17.60;10.40;;;12.40;99.90;;;;;;5029381;28;20103;-71
2022/11/13 09:42:47;;;;;;;16.75;9.15;;;12.80;99.90;;;;;;5032132;28;20035;-72
2022/11/13 09:45:32;;;;;;;14.90;9.02;;;12.80;99.90;;;;;;5034644;28;20037;-72
2022/11/13 09:48:27;;;;;;;14.32;8.82;;;12.80;99.90;;;;;;5028400;28;20415;-73
2022/11/13 09:51:17;;;;;;;15.32;9.10;;;12.80;99.90;;;;;;5031275;28;20099;-73
2022/11/13 09:54:10;;;;;;;20.63;10.02;;;12.80;99.90;;;;;;5033466;28;20036;-72
2022/11/13 09:57:19;;;;;;;15.45;8.80;;;13.00;99.90;;;;;;5030326;28;20156;-72
2022/11/13 10:00:10;;;;;;;18.45;10.13;;;13.00;99.90;;;;;;5034401;28;20024;-71
2022/11/13 10:03:12;;;;;;;14.55;8.80;;;13.20;99.90;;;;;;5033557;28;20040;-72
2022/11/13 10:06:17;;;;;;;15.30;8.23;;;13.20;99.90;;;;;;5024270;28;20040;-72
2022/11/13 10:09:36;;;;;;;19.17;10.68;;;13.40;99.90;;;;;;5032539;28;20052;-71
2022/11/13 10:12:21;;;;;;;15.57;8.65;;;13.30;99.90;;;;;;4925227;29;20076;-72
2022/11/13 10:15:09;;;;;;;14.43;8.63;;;13.30;99.90;;;;;;4923994;29;20042;-72
2022/11/13 10:18:10;;;;;;;15.52;8.57;;;13.30;99.90;;;;;;4929072;29;20508;-71
2022/11/13 10:21:01;;;;;;;15.43;8.63;;;13.30;99.90;;;;;;4929584;29;20055;-72
2022/11/13 10:23:54;;;;;;;16.00;8.65;;;13.40;99.90;;;;;;4932701;29;20488;-75
2022/11/13 10:26:44;;;;;;;14.98;7.10;;;13.50;99.90;;;;;;4927051;29;20446;-76
2022/11/13 10:29:29;;;;;;;17.55;10.18;;;13.50;99.90;;;;;;4924674;29;20091;-77
2022/11/13 10:32:13;;;;;;;25.10;10.38;;;13.70;99.90;;;;;;4928248;29;20061;-77
2022/11/13 10:35:20;;;;;;;13.95;9.20;;;13.80;99.90;;;;;;4932619;29;20039;-77
2022/11/13 10:38:14;;;;;;;16.90;10.95;;;13.90;99.90;;;;;;4932889;29;20038;-72
2022/11/13 10:41:15;;;;;;;18.52;11.88;;;14.20;99.90;;;;;;4919382;29;20050;-78
2022/11/13 10:44:27;;;;;;;21.30;10.82;;;14.20;99.90;;;;;;4919479;29;20043;-72
2022/11/13 10:47:18;;;;;;;19.50;11.50;;;14.20;99.90;;;;;;4932419;29;20054;-74
2022/11/13 10:50:17;;;;;;;16.33;8.90;;;14.20;99.90;;;;;;5027576;28;20095;-73
2022/11/13 10:53:01;;;;;;;23.55;11.35;;;14.30;99.90;;;;;;5031663;28;20731;-72
2022/11/13 10:55:55;;;;;;;15.55;8.98;;;14.40;99.90;;;;;;5031325;28;20111;-76
2022/11/13 10:58:39;;;;;;;15.68;9.07;;;14.40;99.90;;;;;;5026122;28;20083;-73
2022/11/13 11:01:24;;;;;;;21.33;9.65;;;14.40;99.90;;;;;;5031684;28;20099;-74
2022/11/13 11:04:22;;;;;;;20.50;10.43;;;14.40;99.90;;;;;;5026582;28;20116;-72
2022/11/13 11:07:21;;;;;;;20.75;10.95;;;14.40;99.90;;;;;;5026428;28;20095;-74
2022/11/13 11:10:18;;;;;;;20.75;11.15;;;14.50;99.90;;;;;;5016642;28;20072;-72
2022/11/13 11:13:09;;;;;;;16.35;9.80;;;14.40;99.90;;;;;;5029983;28;20041;-75
2022/11/13 11:15:58;;;;;;;14.05;8.27;;;14.50;99.90;;;;;;5029397;28;20037;-73
2022/11/13 11:18:58;;;;;;;17.20;8.95;;;14.60;99.90;;;;;;5024570;28;20114;-73
2022/11/13 11:21:43;;;;;;;15.85;8.75;;;14.80;99.90;;;;;;5028892;28;20037;-73
2022/11/13 11:24:34;;;;;;;16.77;8.77;;;14.90;99.90;;;;;;5023918;28;20123;-76
2022/11/13 11:27:27;;;;;;;15.82;8.95;;;14.90;99.90;;;;;;5015960;28;20041;-77
2022/11/13 11:30:15;;;;;;;18.05;9.40;;;15.00;99.90;;;;;;5015762;28;20733;-76
2022/11/13 11:32:59;;;;;;;16.55;9.80;;;15.00;99.90;;;;;;5002298;28;20040;-74
2022/11/13 11:36:06;;;;;;;15.98;8.75;;;15.00;99.90;;;;;;5029455;28;20088;-74
2022/11/13 11:39:03;;;;;;;16.67;10.18;;;15.10;99.90;;;;;;5029937;28;20095;-74
2022/11/13 11:42:14;;;;;;;16.55;9.00;;;15.10;99.90;;;;;;5026625;28;20036;-76
2022/11/13 11:45:02;;;;;;;13.93;7.97;;;15.00;99.90;;;;;;5027055;28;20045;-73
2022/11/13 11:47:47;;;;;;;15.30;7.75;;;15.00;99.90;;;;;;5023130;28;20056;-76
2022/11/13 11:50:34;;;;;;;14.20;7.35;;;15.10;99.90;;;;;;5027426;28;20052;-74
2022/11/13 11:53:33;;;;;;;15.80;8.60;;;15.20;99.90;;;;;;5018679;28;20037;-75
2022/11/13 11:56:26;;;;;;;14.52;7.75;;;15.30;99.90;;;;;;5030716;28;20079;-74
2022/11/13 11:59:32;;;;;;;14.07;7.85;;;15.40;99.90;;;;;;5028168;28;20411;-76
2022/11/13 12:02:26;;;;;;;14.93;7.70;;;15.40;99.90;;;;;;5020800;28;20040;-78
2022/11/13 12:05:45;;;;;;;16.38;8.32;;;15.40;99.90;;;;;;5026847;28;20040;-79
2022/11/13 12:08:59;;;;;;;12.32;7.03;;;15.40;99.70;;;;;;5025327;28;20048;-76
2022/11/13 12:11:55;;;;;;;16.20;7.57;;;15.40;99.90;;;;;;5026844;28;20395;-77
2022/11/13 12:15:05;;;;;;;15.52;7.57;;;15.40;99.90;;;;;;5023169;28;20053;-75
2022/11/13 12:18:05;;;;;;;15.35;7.57;;;15.40;99.90;;;;;;5026400;28;20036;-75
2022/11/13 12:21:19;;;;;;;18.35;8.30;;;15.50;99.90;;;;;;5026154;28;20049;-77
2022/11/13 12:24:37;;;;;;;16.70;9.52;;;15.50;99.40;;;;;;4949528;29;20641;-77
2022/11/13 12:27:37;;;;;;;14.90;8.43;;;15.50;99.90;;;;;;4949216;29;20046;-77
2022/11/13 12:30:33;;;;;;;15.27;7.53;;;15.50;99.90;;;;;;4948896;29;20082;-77
2022/11/13 12:34:06;;;;;;;18.23;10.15;;;15.60;99.90;;;;;;4948264;28;20046;-78
2022/11/13 12:36:52;;;;;;;15.38;9.43;;;15.60;99.90;;;;;;4881419;29;20148;-77
2022/11/13 12:39:50;;;;;;;14.88;9.65;;;15.60;99.90;;;;;;4895030;29;20124;-76
2022/11/13 12:42:54;;;;;;;17.48;9.57;;;15.50;99.90;;;;;;4905228;29;20038;-76
2022/11/13 12:45:38;;;;;;;16.55;8.18;;;15.50;99.90;;;;;;4895247;29;20121;-77
2022/11/13 12:48:32;;;;;;;16.58;9.38;;;15.50;99.90;;;;;;4910486;29;20070;-76
2022/11/13 12:51:20;;;;;;;18.60;10.10;;;15.40;99.90;;;;;;4912699;29;20583;-77
2022/11/13 12:54:10;;;;;;;19.33;10.65;;;15.30;99.90;;;;;;4912966;29;20492;-76
2022/11/13 12:57:12;;;;;;;17.95;9.95;;;15.30;99.90;;;;;;4906576;29;20070;-75
2022/11/13 13:00:09;;;;;;;16.10;9.57;;;15.20;99.90;;;;;;4915755;28;20550;-75
2022/11/13 13:03:01;;;;;;;21.95;11.77;;;15.00;99.90;;;;;;4962209;28;20118;-75
2022/11/13 13:05:51;;;;;;;18.15;8.60;;;14.90;99.90;;;;;;4955949;28;20030;-78
2022/11/13 13:08:47;;;;;;;14.48;9.07;;;14.80;99.90;;;;;;4946968;28;20437;-76
2022/11/13 13:11:58;;;;;;;16.02;10.48;;;14.80;99.90;;;;;;4949067;29;20051;-77
2022/11/13 13:15:00;;;;;;;19.30;9.98;;;14.70;99.90;;;;;;4938190;29;20050;-75
2022/11/13 13:17:45;;;;;;;22.20;12.85;;;14.60;99.90;;;;;;4947166;29;20079;-76
2022/11/13 13:20:36;;;;;;;25.85;15.40;;;14.50;99.90;;;;;;4949754;29;20038;-75
2022/11/13 13:23:36;;;;;;;23.25;15.45;;;14.50;99.90;;;;;;4949702;29;20643;-75
2022/11/13 13:26:24;;;;;;;27.92;14.95;;;14.50;99.90;;;;;;4947303;29;20039;-76
2022/11/13 13:29:22;;;;;;;24.70;14.90;;;14.50;99.90;;;;;;4926544;29;20046;-77
2022/11/13 13:32:37;;;;;;;22.45;13.52;;;14.60;99.90;;;;;;4941715;29;20075;-76
2022/11/13 13:35:57;;;;;;;23.52;12.57;;;14.60;99.90;;;;;;4949875;29;20050;-77
2022/11/13 13:38:56;;;;;;;22.45;12.35;;;14.60;99.90;;;;;;4930879;29;20134;-76
2022/11/13 13:41:56;;;;;;;20.92;12.77;;;14.70;99.90;;;;;;4932055;29;20115;-77
2022/11/13 13:45:07;;;;;;;28.67;16.70;;;14.70;99.90;;;;;;4937465;28;20636;-77
2022/11/13 13:47:55;;;;;;;26.30;13.98;;;14.80;99.90;;;;;;4934912;29;20525;-74
2022/11/13 13:50:45;;;;;;;23.90;13.02;;;14.90;99.90;;;;;;4946514;28;20078;-74
2022/11/13 13:53:34;;;;;;;25.65;14.95;;;14.90;99.90;;;;;;4977801;28;20576;-76
2022/11/13 13:56:20;;;;;;;21.55;13.48;;;14.90;99.90;;;;;;4975325;28;20042;-75
2022/11/13 13:59:12;;;;;;;24.17;12.70;;;14.90;99.90;;;;;;4994865;28;20084;-77
2022/11/13 14:01:59;;;;;;;27.33;17.35;;;14.90;99.90;;;;;;4983914;28;20042;-75
2022/11/13 14:04:46;;;;;;;23.08;14.57;;;14.90;99.90;;;;;;4988414;28;20078;-77
2022/11/13 14:07:32;;;;;;;22.63;13.35;;;14.90;99.90;;;;;;4988225;28;20065;-78
2022/11/13 14:10:19;;;;;;;23.63;14.23;;;14.90;99.90;;;;;;4988160;28;20093;-76
2022/11/13 14:13:03;;;;;;;24.67;11.90;;;14.90;99.90;;;;;;4987464;28;20100;-75
2022/11/13 14:15:48;;;;;;;19.90;12.20;;;15.00;99.90;;;;;;5013660;28;20048;-75
2022/11/13 14:18:33;;;;;;;18.80;10.82;;;14.90;99.90;;;;;;5021923;28;20037;-76
2022/11/13 14:21:23;;;;;;;21.02;10.95;;;15.00;99.90;;;;;;5029045;28;20380;-75
2022/11/13 14:24:28;;;;;;;16.90;10.15;;;15.00;99.90;;;;;;5031521;28;20099;-75